Latest Weather Observations for Mount Boyce

IDN60801

Issued at 8:35 pm EST Wednesday 16 April 2014 (issued every 30 minutes, with the page automatically refreshed every 10 minutes)

About weather observations | Map of weather stations | Latest weather observations for NSW | Other Formats
Station Details ID: 063292 Name: MOUNT BOYCE AWS Lat: -33.62 Lon: 150.27 Height: 1080.0 m
Data from the previous 72 hours. | See also: Recent months at Mount Boyce
Date/Time
EST
Temp
°C
App
Temp
°C
Dew
Point
Rel
Hum
%
Delta-T
°C
Wind Press
QNH
hPa
Press
MSL
hPa
Rain
since 9 am
mm
Dir
 
Spd
km/h
Gust
km/h
Spd
kts
Gust
kts
16/08:30pm 9.3 7.6 8.4 94 0.5 ENE 7 11 4 6 - - 0.0
16/08:00pm 9.5 7.8 8.3 92 0.6 ENE 7 9 4 5 - - 0.0
16/07:30pm 10.1 8.4 8.4 89 0.9 ENE 7 13 4 7 - - 0.0
16/07:00pm 10.9 9.5 9.0 88 1.0 ENE 6 9 3 5 - - 0.0
16/06:30pm 11.1 9.5 8.7 85 1.3 ENE 7 9 4 5 - - 0.0
16/06:00pm 11.7 10.4 9.3 85 1.3 ENE 6 7 3 4 - - 0.0
16/05:30pm 12.1 10.5 8.9 81 1.7 ENE 7 11 4 6 - - 0.0
16/05:00pm 12.7 11.4 9.3 80 1.8 ENE 6 9 3 5 - - 0.0
16/04:30pm 13.2 11.7 9.3 77 2.1 ENE 7 9 4 5 - - 0.0
16/04:00pm 13.8 12.3 8.6 71 2.8 ENE 6 9 3 5 - - 0.0
16/03:30pm 15.2 13.8 8.7 65 3.5 ENE 6 11 3 6 - - 0.0
16/03:00pm 14.9 13.6 7.7 62 3.8 NNE 4 9 2 5 - - 0.0
16/02:30pm 17.0 15.6 8.7 58 4.5 SW 6 11 3 6 - - 0.0
16/02:00pm 15.4 14.1 9.1 66 3.4 SSW 6 9 3 5 - - 0.0
16/01:30pm 14.3 12.4 7.6 64 3.5 SSE 7 15 4 8 - - 0.0
16/01:00pm 14.3 12.6 8.5 68 3.1 S 7 11 4 6 - - 0.0
16/12:30pm 13.7 12.1 8.1 69 3.0 SSE 6 11 3 6 - - 0.0
16/12:00pm 13.3 11.5 8.0 70 2.8 SSE 7 11 4 6 - - 0.0
16/11:49am 14.6 13.6 10.2 75 2.4 ESE 6 13 3 7 - - 0.0
16/11:30am 12.6 11.1 8.3 75 2.3 SSW 6 15 3 8 - - 0.0
16/11:29am 12.6 11.1 8.3 75 2.3 S 6 15 3 8 - - 0.0
16/11:18am 12.7 11.0 8.4 75 2.3 S 7 11 4 6 - - 0.0
16/11:00am 13.0 11.2 8.1 72 2.6 SE 7 15 4 8 - - 0.0
16/10:30am 12.9 11.4 9.2 78 2.0 SE 7 13 4 7 - - 0.0
16/10:00am 11.7 10.7 8.9 83 1.5 S 4 15 2 8 - - 0.0
16/09:30am 11.0 9.8 9.4 90 0.9 SW 6 9 3 5 - - 0.0
16/09:00am 10.4 9.0 9.0 91 0.7 WSW 6 13 3 7 - - 0.4
16/08:30am 9.5 8.0 8.4 93 0.6 SSW 6 9 3 5 - - 0.4
16/08:03am 9.2 7.5 8.3 94 0.5 SW 7 13 4 7 - - 0.4
16/08:00am 9.1 7.4 8.2 94 0.5 SW 7 13 4 7 - - 0.4
16/07:30am 8.7 5.7 7.9 95 0.4 SE 13 24 7 13 - - 0.4
16/07:00am 8.2 5.9 7.6 96 0.3 SSE 9 15 5 8 - - 0.4
16/06:30am 8.0 6.1 7.4 96 0.3 SSW 7 15 4 8 - - 0.4
16/06:00am 8.2 6.3 7.4 95 0.4 S 7 15 4 8 - - 0.4
16/05:46am 8.2 5.9 7.4 95 0.4 S 9 17 5 9 - - 0.4
16/05:30am 8.1 5.8 7.3 95 0.4 S 9 17 5 9 - - 0.4
16/05:00am 8.2 5.5 7.4 95 0.4 SSW 11 17 6 9 - - 0.4
16/04:30am 8.3 5.6 7.5 95 0.4 S 11 15 6 8 - - 0.4
16/04:00am 8.3 6.0 7.5 95 0.4 SW 9 13 5 7 - - 0.4
16/03:30am 8.4 5.8 7.6 95 0.4 S 11 15 6 8 - - 0.2
16/03:08am 8.4 6.1 7.5 94 0.5 SSW 9 17 5 9 - - 0.2
16/03:00am 8.4 5.4 7.5 94 0.5 S 13 22 7 12 - - 0.2
16/02:30am 8.5 6.2 7.4 93 0.6 S 9 17 5 9 - - 0.2
16/02:11am 8.5 5.8 7.4 93 0.6 S 11 20 6 11 - - 0.2
16/02:00am 8.5 5.4 7.4 93 0.6 S 13 19 7 10 - - 0.2
16/01:30am 8.7 5.3 7.6 93 0.6 S 15 22 8 12 - - 0.2
16/01:00am 8.5 5.9 7.6 94 0.5 S 11 19 6 10 - - 0.2
16/12:55am 8.5 5.9 7.6 94 0.5 S 11 19 6 10 - - 0.2
16/12:30am 8.4 5.3 7.3 93 0.6 S 13 22 7 12 - - 0.2
16/12:15am 8.7 6.1 7.8 94 0.5 SSW 11 20 6 11 - - 0.2
16/12:00am 8.8 5.8 7.9 94 0.5 SSW 13 22 7 12 - - 0.2
 
Date/Time
EST
Temp
°C
App
Temp
°C
Dew
Point
Rel
Hum
%
Delta-T
°C
Wind Press
QNH
hPa
Press
MSL
hPa
Rain
since 9 am
mm
Dir
 
Spd
km/h
Gust
km/h
Spd
kts
Gust
kts
15/11:30pm 9.2 6.7 8.4 95 0.4 S 11 22 6 12 - - 0.2
15/11:13pm 9.2 7.1 8.4 95 0.4 SSE 9 13 5 7 - - 0.2
15/11:00pm 9.4 7.4 8.6 95 0.4 S 9 22 5 12 - - 0.2
15/10:50pm 9.4 7.4 8.6 95 0.4 SSE 9 20 5 11 - - 0.2
15/10:34pm 9.5 7.1 8.7 95 0.4 S 11 19 6 10 - - 0.2
15/10:30pm 9.5 6.7 8.7 95 0.4 S 13 20 7 11 - - 0.2
15/10:21pm 9.5 6.7 8.7 95 0.4 S 13 20 7 11 - - 0.2
15/10:19pm 9.5 7.1 8.7 95 0.4 SSE 11 20 6 11 - - 0.2
15/10:18pm 9.5 7.1 8.7 95 0.4 SSE 11 19 6 10 - - 0.2
15/10:03pm 9.6 6.9 8.8 95 0.4 SE 13 20 7 11 - - 0.2
15/10:00pm 9.6 7.2 8.8 95 0.4 SE 11 22 6 12 - - 0.2
15/09:43pm 9.8 7.5 9.0 95 0.4 ESE 11 22 6 12 - - 0.2
15/09:33pm 9.8 7.5 9.0 95 0.4 ESE 11 17 6 9 - - 0.2
15/09:30pm 9.9 7.6 9.1 95 0.4 ESE 11 17 6 9 - - 0.2
15/09:20pm 10.0 8.1 9.2 95 0.4 E 9 15 5 8 - - 0.2
15/09:19pm 10.0 8.1 9.2 95 0.4 E 9 15 5 8 - - 0.2
15/09:00pm 10.2 8.4 9.4 95 0.4 E 9 19 5 10 - - 0.0
15/08:54pm 10.2 8.4 9.3 94 0.5 E 9 19 5 10 - - 0.0
15/08:34pm 9.9 7.9 8.8 93 0.6 E 9 17 5 9 - - 0.0
15/08:30pm 9.9 7.9 8.8 93 0.6 E 9 17 5 9 - - 0.0
15/08:00pm 10.4 8.6 9.3 93 0.6 E 9 17 5 9 - - 0.0
15/07:38pm 10.4 8.5 9.0 91 0.7 E 9 13 5 7 - - 0.0
15/07:30pm 10.2 8.2 8.8 91 0.7 E 9 17 5 9 - - 0.0
15/07:00pm 9.7 7.8 7.5 86 1.1 E 7 15 4 8 - - 0.0
15/06:30pm 10.1 7.8 7.3 83 1.4 E 9 19 5 10 - - 0.0
15/06:00pm 10.5 8.1 7.2 80 1.7 E 9 15 5 8 - - 0.0
15/05:30pm 11.2 8.8 7.1 76 2.1 E 9 15 5 8 - - 0.0
15/05:00pm 11.6 9.6 6.9 73 2.4 E 7 13 4 7 - - 0.0
15/04:30pm 12.3 10.2 6.8 69 2.8 ESE 7 13 4 7 - - 0.0
15/04:00pm 12.5 9.6 6.3 66 3.1 ESE 11 20 6 11 - - 0.0
15/03:30pm 13.2 11.0 7.9 70 2.8 ESE 9 19 5 10 - - 0.0
15/03:00pm 13.6 11.4 7.8 68 3.0 SE 9 19 5 10 - - 0.0
15/02:30pm 14.1 12.5 8.1 67 3.2 ESE 6 11 3 6 - - 0.0
15/02:00pm 14.2 13.1 8.6 69 3.0 SSE 4 11 2 6 - - 0.0
15/01:30pm 15.0 14.4 9.1 68 3.2 N 2 7 1 4 - - 0.0
15/01:00pm 14.0 13.0 8.8 71 2.8 SSW 4 9 2 5 - - 0.0
15/12:30pm 13.4 12.2 9.5 77 2.1 W 6 11 3 6 - - 0.0
15/12:00pm 13.3 11.7 8.8 74 2.4 WSW 7 9 4 5 - - 0.0
15/11:30am 13.7 12.3 9.7 77 2.2 WNW 7 13 4 7 - - 0.0
15/11:00am 13.1 11.4 9.7 80 1.8 WNW 9 13 5 7 - - 0.0
15/10:30am 11.5 10.9 8.9 84 1.4 W 2 7 1 4 - - 0.0
15/10:11am 11.9 11.0 9.1 83 1.5 W 4 7 2 4 - - 0.0
15/10:00am 12.4 11.5 9.2 81 1.7 WNW 4 9 2 5 - - 0.0
15/09:30am 11.9 11.7 9.1 83 1.5 CALM 0 2 0 1 - - 0.0
15/09:00am 11.9 11.3 10.3 90 0.9 NW 4 9 2 5 - - 1.8
15/08:30am 9.8 9.3 9.3 97 0.3 S 2 11 1 6 - - 1.8
15/08:00am 8.6 8.2 8.3 98 0.2 CALM 0 0 0 0 - - 1.8
15/07:30am 7.9 6.6 7.6 98 0.2 S 4 11 2 6 - - 1.8
15/07:29am 7.9 6.6 7.6 98 0.2 S 4 11 2 6 - - 1.8
15/07:26am 7.9 6.2 7.6 98 0.2 S 6 13 3 7 - - 1.8
15/07:00am 7.4 5.6 7.0 97 0.2 S 6 9 3 5 - - 1.8
15/06:54am 7.5 5.7 7.1 97 0.2 S 6 7 3 4 - - 1.8
15/06:30am 7.4 6.3 7.0 97 0.2 S 2 7 1 4 - - 1.8
15/06:22am 7.5 6.1 7.1 97 0.2 SSE 4 9 2 5 - - 1.8
15/06:00am 7.6 5.6 7.2 97 0.2 SSE 7 11 4 6 - - 1.8
15/05:30am 7.7 5.7 7.3 97 0.2 SSE 7 13 4 7 - - 1.8
15/05:00am 7.8 5.9 7.4 97 0.2 SE 7 11 4 6 - - 1.8
15/04:52am 7.9 6.0 7.5 97 0.2 SE 7 13 4 7 - - 1.8
15/04:30am 8.0 6.1 7.6 97 0.2 ESE 7 13 4 7 - - 1.8
15/04:00am 8.1 5.9 7.7 97 0.2 E 9 13 5 7 - - 1.8
15/03:30am 8.0 6.6 7.4 96 0.3 E 4 9 2 5 - - 1.8
15/03:23am 7.9 5.9 7.3 96 0.3 E 7 11 4 6 - - 1.8
15/03:00am 7.5 5.4 6.8 95 0.3 E 7 11 4 6 - - 1.8
15/02:30am 7.8 5.8 7.1 95 0.3 SE 7 13 4 7 - - 1.8
15/02:01am 7.9 6.1 7.1 95 0.4 SSE 6 13 3 7 - - 1.8
15/02:00am 7.9 5.9 7.1 95 0.4 SE 7 13 4 7 - - 1.8
15/01:41am 8.1 5.8 7.3 95 0.4 SSE 9 15 5 8 - - 1.8
15/01:30am 8.0 6.0 7.2 95 0.4 SSE 7 17 4 9 - - 1.8
15/01:00am 7.7 5.6 6.8 94 0.4 SSE 7 13 4 7 - - 1.8
15/12:30am 7.8 5.4 6.9 94 0.4 S 9 13 5 7 - - 1.8
15/12:00am 7.8 5.9 6.9 94 0.4 S 6 11 3 6 - - 1.8
 
Date/Time
EST
Temp
°C
App
Temp
°C
Dew
Point
Rel
Hum
%
Delta-T
°C
Wind Press
QNH
hPa
Press
MSL
hPa
Rain
since 9 am
mm
Dir
 
Spd
km/h
Gust
km/h
Spd
kts
Gust
kts
14/11:30pm 7.9 5.9 7.0 94 0.4 S 7 13 4 7 - - 1.8
14/11:00pm 8.1 5.7 6.9 92 0.6 SSE 9 15 5 8 - - 1.8
14/10:30pm 8.6 6.3 7.5 93 0.6 SSE 9 17 5 9 - - 1.8
14/10:00pm 8.6 6.7 7.7 94 0.5 SSE 7 13 4 7 - - 1.6
14/09:30pm 8.5 6.6 7.6 94 0.5 SSE 7 13 4 7 - - 1.6
14/09:22pm 8.5 6.2 7.6 94 0.5 SSE 9 19 5 10 - - 1.6
14/09:08pm 8.5 6.2 7.6 94 0.5 SE 9 19 5 10 - - 1.6
14/09:05pm 8.5 6.3 7.7 95 0.4 SE 9 17 5 9 - - 1.6
14/09:00pm 8.4 6.1 7.6 95 0.4 SE 9 17 5 9 - - 1.6
14/08:59pm 8.4 6.1 7.6 95 0.4 SE 9 17 5 9 - - 1.6
14/08:38pm 8.5 6.3 7.7 95 0.4 ESE 9 17 5 9 - - 1.6
14/08:30pm 8.5 5.9 7.7 95 0.4 ESE 11 19 6 10 - - 1.6
14/08:23pm 8.5 6.3 7.7 95 0.4 ESE 9 17 5 9 - - 1.6
14/08:03pm 8.8 5.9 8.2 96 0.3 SE 13 26 7 14 - - 1.6
14/08:00pm 8.9 6.4 8.3 96 0.3 SE 11 22 6 12 - - 1.6
14/07:58pm 8.9 6.4 8.3 96 0.3 ESE 11 22 6 12 - - 1.6
14/07:32pm 9.1 6.3 8.5 96 0.3 ESE 13 24 7 13 - - 1.6
14/07:30pm 9.1 6.3 8.5 96 0.3 ESE 13 24 7 13 - - 1.6
14/07:22pm 9.2 6.8 8.6 96 0.3 ESE 11 20 6 11 - - 1.6
14/07:13pm 9.2 6.4 8.6 96 0.3 ESE 13 24 7 13 - - 1.6
14/07:04pm 9.2 6.8 8.6 96 0.3 ESE 11 19 6 10 - - 1.6
14/07:00pm 9.3 7.3 8.7 96 0.3 ESE 9 19 5 10 - - 1.6
14/06:30pm 9.5 7.6 8.9 96 0.3 E 9 19 5 10 - - 1.4
14/06:00pm 9.6 6.9 8.8 95 0.4 E 13 24 7 13 - - 1.2
14/05:30pm 10.4 8.6 9.5 94 0.5 ESE 9 17 5 9 - - 0.6
14/05:00pm 10.9 9.2 10.0 94 0.5 E 9 17 5 9 - - 0.2
14/04:56pm 10.7 8.6 9.6 93 0.6 E 11 17 6 9 - - 0.2
14/04:31pm 10.8 9.0 9.4 91 0.7 ESE 9 15 5 8 - - 0.2
14/04:30pm 10.8 9.0 9.4 91 0.7 ESE 9 15 5 8 - - 0.2
14/04:20pm 11.0 8.9 9.6 91 0.7 E 11 26 6 14 - - 0.0
14/04:00pm 11.6 9.8 9.5 87 1.1 E 9 15 5 8 - - 0.0
14/03:30pm 12.3 11.0 9.9 85 1.3 E 7 13 4 7 - - 0.0
14/03:21pm 12.8 11.5 10.0 83 1.5 E 7 15 4 8 - - 0.0
14/03:00pm 13.4 11.5 9.1 75 2.3 E 9 17 5 9 - - 0.0
14/02:30pm 13.7 12.2 8.5 71 2.8 E 6 11 3 6 - - 0.0
14/02:00pm 14.0 11.7 7.5 65 3.4 SE 9 19 5 10 - - 0.0
14/01:30pm 14.0 12.3 8.2 68 3.1 ESE 7 17 4 9 - - 0.0
14/01:00pm 13.7 10.7 7.7 67 3.1 SE 13 24 7 13 - - 0.0
14/12:30pm 15.2 13.6 8.9 66 3.4 ESE 7 15 4 8 - - 0.0
14/12:00pm 13.0 10.2 7.0 67 3.1 SE 11 19 6 10 - - 0.0
14/11:30am 14.2 12.3 9.2 72 2.7 ESE 9 17 5 9 - - 0.0
14/11:00am 13.9 11.9 8.5 70 2.9 ESE 9 22 5 12 - - 0.0
14/10:30am 13.0 10.7 7.5 69 2.9 ESE 9 13 5 7 - - 0.0
14/10:00am 12.6 9.6 6.2 65 3.2 SSE 11 19 6 10 - - 0.0
14/09:30am 12.1 9.6 5.0 62 3.5 S 7 17 4 9 - - 0.0
14/09:00am 10.4 7.8 4.3 66 2.9 SSW 7 9 4 5 - - 0.0
14/08:30am 9.3 6.5 3.3 66 2.8 SSW 7 11 4 6 - - 0.0
14/08:00am 7.9 4.2 2.6 69 2.4 S 11 15 6 8 - - 0.0
14/07:30am 7.7 3.6 2.4 69 2.4 SSE 13 20 7 11 - - 0.0
14/07:00am 7.2 3.1 2.5 72 2.1 SSE 13 22 7 12 - - 0.0
14/06:30am 7.3 4.1 3.2 75 1.9 S 9 13 5 7 - - 0.0
14/06:00am 7.2 3.7 3.6 78 1.6 S 11 17 6 9 - - 0.0
14/05:30am 7.4 4.0 4.0 79 1.6 S 11 20 6 11 - - 0.0
14/05:00am 6.9 4.0 4.4 84 1.2 SW 9 22 5 12 - - 0.0
14/04:30am 7.0 4.1 4.7 85 1.1 SW 9 17 5 9 - - 0.0
14/04:00am 7.0 3.8 5.0 87 0.9 SW 11 19 6 10 - - 0.0
14/03:30am 7.3 3.5 5.9 91 0.7 S 15 24 8 13 - - 0.0
14/03:09am 7.5 4.2 6.6 94 0.4 SSW 13 22 7 12 - - 0.0
14/03:00am 7.5 4.7 6.8 95 0.3 SSW 11 20 6 11 - - 0.0
14/02:30am 8.1 4.6 7.3 95 0.4 SSW 15 22 8 12 - - 0.0
14/02:01am 8.1 5.0 7.3 95 0.4 S 13 24 7 13 - - 0.0
14/02:00am 8.1 5.0 7.3 95 0.4 S 13 24 7 13 - - 0.0
14/01:30am 8.4 6.4 7.2 92 0.6 S 7 13 4 7 - - 0.0
14/01:00am 8.8 7.1 7.4 91 0.7 SE 6 13 3 7 - - 0.0
14/12:30am 9.1 7.4 7.5 90 0.8 ESE 6 13 3 7 - - 0.0
14/12:00am 9.2 7.4 7.8 91 0.7 E 7 11 4 6 - - 0.0
 
Date/Time
EST
Temp
°C
App
Temp
°C
Dew
Point
Rel
Hum
%
Delta-T
°C
Wind Press
QNH
hPa
Press
MSL
hPa
Rain
since 9 am
mm
Dir
 
Spd
km/h
Gust
km/h
Spd
kts
Gust
kts
13/11:30pm 9.0 6.7 7.3 89 0.9 ESE 9 17 5 9 - - 0.0
13/11:00pm 9.2 6.5 7.5 89 0.9 ESE 11 17 6 9 - - 0.0
13/10:30pm 8.9 6.0 6.7 86 1.1 E 11 20 6 11 - - 0.0
13/10:00pm 9.3 6.6 7.4 88 1.0 E 11 20 6 11 - - 0.0
13/09:30pm 9.3 6.7 7.9 91 0.7 E 11 19 6 10 - - 0.0
13/09:00pm 9.2 6.5 7.5 89 0.9 E 11 22 6 12 - - 0.0
13/08:58pm 9.3 6.7 7.6 89 0.9 E 11 20 6 11 - - 0.0

Other Formats:

Comma delimited format used in spreadsheet applications
http://www.bom.gov.au/fwo/IDN60801/IDN60801.94743.axf

JavaScript Object Notation format (JSON) in row-major order
http://www.bom.gov.au/fwo/IDN60801/IDN60801.94743.json